createdAt,value
2023-03-21T00:00:36.527Z,1007.08
2023-03-21T00:01:36.505Z,1007.11
2023-03-21T00:02:36.564Z,1007.09
2023-03-21T00:03:36.796Z,1007.05
2023-03-21T00:04:50.467Z,1007.10
2023-03-21T00:05:36.991Z,1007.11
2023-03-21T00:06:41.485Z,1007.03
2023-03-21T00:07:36.439Z,1007.07
2023-03-21T00:08:36.426Z,1007.04
2023-03-21T00:09:36.447Z,1007.05
2023-03-21T00:10:43.542Z,1007.02
2023-03-21T00:11:37.393Z,1007.01
2023-03-21T00:12:36.377Z,1006.98
2023-03-21T00:13:36.365Z,1006.98
2023-03-21T00:14:36.355Z,1006.96
2023-03-21T00:15:48.460Z,1006.96
2023-03-21T00:16:36.735Z,1006.98
2023-03-21T00:17:41.340Z,1006.92
2023-03-21T00:18:36.310Z,1006.95
2023-03-21T00:19:36.296Z,1006.92
2023-03-21T00:20:36.291Z,1006.93
2023-03-21T00:21:48.674Z,1006.89
2023-03-21T00:22:36.294Z,1006.90
2023-03-21T00:23:36.262Z,1006.85
2023-03-21T00:24:36.278Z,1006.90
2023-03-21T00:25:36.498Z,1006.88
2023-03-21T00:26:36.233Z,1006.86
2023-03-21T00:27:53.202Z,1006.80
2023-03-21T00:28:41.220Z,1006.91
2023-03-21T00:29:36.181Z,1006.84
2023-03-21T00:30:36.174Z,1006.90
2023-03-21T00:31:36.169Z,1006.82
2023-03-21T00:32:42.831Z,1006.88
2023-03-21T00:33:36.192Z,1006.82
2023-03-21T00:34:42.881Z,1006.82
2023-03-21T00:35:57.944Z,1006.83
2023-03-21T00:36:36.179Z,1006.72
2023-03-21T00:37:36.100Z,1006.78
2023-03-21T00:38:36.103Z,1006.76
2023-03-21T00:39:41.140Z,1006.76
2023-03-21T00:40:43.650Z,1006.73
2023-03-21T00:41:43.001Z,1006.71
2023-03-21T00:42:37.062Z,1006.74
2023-03-21T00:43:36.024Z,1006.70
2023-03-21T00:44:36.014Z,1006.72
2023-03-21T00:45:36.329Z,1006.71
2023-03-21T00:46:45.546Z,1006.71
2023-03-21T00:47:37.071Z,1006.73
2023-03-21T00:48:36.090Z,1006.74
2023-03-21T00:49:35.958Z,1006.71
2023-03-21T00:50:40.971Z,1006.66
2023-03-21T00:51:35.953Z,1006.69
2023-03-21T00:52:40.908Z,1006.67
2023-03-21T00:53:35.913Z,1006.63
2023-03-21T00:54:35.925Z,1006.65
2023-03-21T00:55:36.135Z,1006.67
2023-03-21T00:56:35.889Z,1006.65
2023-03-21T00:57:42.239Z,1006.64
2023-03-21T00:58:35.859Z,1006.61
2023-03-21T00:59:35.845Z,1006.69
2023-03-21T01:00:35.914Z,1006.67
2023-03-21T01:01:40.893Z,1006.57
2023-03-21T01:02:35.821Z,1006.62
2023-03-21T01:03:35.815Z,1006.62
2023-03-21T01:04:35.791Z,1006.56
2023-03-21T01:05:36.030Z,1006.62
2023-03-21T01:06:35.769Z,1006.61
2023-03-21T01:07:35.763Z,1006.55
2023-03-21T01:08:50.499Z,1006.57
2023-03-21T01:09:35.744Z,1006.54
2023-03-21T01:10:35.764Z,1006.50
2023-03-21T01:11:35.711Z,1006.55
2023-03-21T01:12:40.745Z,1006.52
2023-03-21T01:13:38.382Z,1006.49
2023-03-21T01:14:35.681Z,1006.57
2023-03-21T01:15:35.945Z,1006.53
2023-03-21T01:16:35.688Z,1006.57
2023-03-21T01:17:35.652Z,1006.52
2023-03-21T01:18:35.641Z,1006.49
2023-03-21T01:19:50.583Z,1006.50
2023-03-21T01:20:35.610Z,1006.47
2023-03-21T01:21:35.620Z,1006.48
2023-03-21T01:22:35.608Z,1006.50
2023-03-21T01:23:40.604Z,1006.51
2023-03-21T01:24:37.799Z,1006.51
2023-03-21T01:25:35.553Z,1006.44
2023-03-21T01:26:35.569Z,1006.47
2023-03-21T01:27:35.558Z,1006.40
2023-03-21T01:28:35.529Z,1006.40
2023-03-21T01:29:35.506Z,1006.40
2023-03-21T01:30:41.730Z,1006.41
2023-03-21T01:31:35.507Z,1006.37
2023-03-21T01:32:35.474Z,1006.33
2023-03-21T01:33:35.505Z,1006.31
2023-03-21T01:34:40.486Z,1006.36
2023-03-21T01:35:48.009Z,1006.35
2023-03-21T01:36:35.510Z,1006.39
2023-03-21T01:37:35.418Z,1006.29
2023-03-21T01:38:35.405Z,1006.36
2023-03-21T01:39:35.436Z,1006.26
2023-03-21T01:40:35.382Z,1006.29
2023-03-21T01:41:44.390Z,1006.31
2023-03-21T01:42:36.385Z,1006.36
2023-03-21T01:43:35.349Z,1006.25
2023-03-21T01:44:35.347Z,1006.28
2023-03-21T01:45:40.544Z,1006.25
2023-03-21T01:46:47.823Z,1006.25
2023-03-21T01:47:35.305Z,1006.28
2023-03-21T01:48:35.302Z,1006.28
2023-03-21T01:49:35.307Z,1006.27
2023-03-21T01:50:35.270Z,1006.30
2023-03-21T01:51:35.283Z,1006.27
2023-03-21T01:52:38.337Z,1006.25
2023-03-21T01:53:35.241Z,1006.20
2023-03-21T01:54:35.239Z,1006.24
2023-03-21T01:55:35.510Z,1006.23
2023-03-21T01:56:40.228Z,1006.21
2023-03-21T01:57:43.606Z,1006.28
2023-03-21T01:58:35.203Z,1006.29
2023-03-21T01:59:35.171Z,1006.30
2023-03-21T02:00:35.175Z,1006.27
2023-03-21T02:01:35.145Z,1006.28
2023-03-21T02:02:35.141Z,1006.28
2023-03-21T02:03:36.421Z,1006.20
2023-03-21T02:04:35.111Z,1006.22
2023-03-21T02:05:35.431Z,1006.24
2023-03-21T02:06:35.090Z,1006.20
2023-03-21T02:07:40.099Z,1006.21
2023-03-21T02:08:39.581Z,1006.20
2023-03-21T02:09:35.076Z,1006.15
2023-03-21T02:10:35.054Z,1006.13
2023-03-21T02:11:35.030Z,1006.14
2023-03-21T02:12:35.020Z,1006.15
2023-03-21T02:13:35.007Z,1006.09
2023-03-21T02:14:35.023Z,1006.08
2023-03-21T02:15:35.437Z,1006.04
2023-03-21T02:16:34.991Z,1006.06
2023-03-21T02:17:34.959Z,1005.99
2023-03-21T02:18:39.979Z,1006.03
2023-03-21T02:19:41.672Z,1006.02
2023-03-21T02:20:34.933Z,1006.05
2023-03-21T02:21:34.955Z,1006.04
2023-03-21T02:22:34.913Z,1005.96
2023-03-21T02:23:34.899Z,1005.96
2023-03-21T02:24:34.890Z,1005.99
2023-03-21T02:25:34.878Z,1005.99
2023-03-21T02:26:41.947Z,1005.96
2023-03-21T02:27:34.870Z,1005.98
2023-03-21T02:28:34.844Z,1005.96
2023-03-21T02:29:39.877Z,1005.95
2023-03-21T02:30:42.652Z,1005.96
2023-03-21T02:31:34.894Z,1005.89
2023-03-21T02:32:37.691Z,1005.96
2023-03-21T02:33:34.819Z,1005.90
2023-03-21T02:34:34.777Z,1005.92
2023-03-21T02:35:39.136Z,1005.94
2023-03-21T02:36:34.831Z,1005.91
2023-03-21T02:37:38.370Z,1005.92
2023-03-21T02:38:34.732Z,1005.90
2023-03-21T02:39:34.764Z,1005.89
2023-03-21T02:40:40.071Z,1005.91
2023-03-21T02:41:40.144Z,1005.91
2023-03-21T02:42:34.700Z,1005.94
2023-03-21T02:43:34.684Z,1005.86
2023-03-21T02:44:34.671Z,1005.89
2023-03-21T02:45:34.678Z,1005.92
2023-03-21T02:46:43.948Z,1005.83
2023-03-21T02:47:35.636Z,1005.83
2023-03-21T02:48:48.197Z,1005.91
2023-03-21T02:49:35.613Z,1005.85
2023-03-21T02:50:34.717Z,1005.87
2023-03-21T02:51:39.701Z,1005.85
2023-03-21T02:52:39.628Z,1005.93
2023-03-21T02:53:35.573Z,1005.90
2023-03-21T02:54:47.204Z,1005.88
2023-03-21T02:55:35.550Z,1005.92
2023-03-21T02:56:34.535Z,1005.91
2023-03-21T02:57:42.650Z,1005.91
2023-03-21T02:58:34.534Z,1005.89
2023-03-21T02:59:39.428Z,1005.90
2023-03-21T03:00:34.593Z,1005.91
2023-03-21T03:01:34.552Z,1005.93
2023-03-21T03:02:39.506Z,1005.89
2023-03-21T03:03:35.106Z,1005.88
2023-03-21T03:04:34.525Z,1005.83
2023-03-21T03:05:34.442Z,1005.87
2023-03-21T03:06:34.430Z,1005.79
2023-03-21T03:07:34.456Z,1005.75
2023-03-21T03:08:50.154Z,1005.75
2023-03-21T03:09:35.394Z,1005.76
2023-03-21T03:10:34.410Z,1005.71
2023-03-21T03:11:34.385Z,1005.78
2023-03-21T03:12:34.372Z,1005.71
2023-03-21T03:13:39.374Z,1005.77
2023-03-21T03:14:49.849Z,1005.77
2023-03-21T03:15:35.390Z,1005.72
2023-03-21T03:16:34.333Z,1005.69
2023-03-21T03:17:34.345Z,1005.63
2023-03-21T03:18:34.295Z,1005.64
2023-03-21T03:19:41.694Z,1005.73
2023-03-21T03:20:34.276Z,1005.73
2023-03-21T03:21:34.268Z,1005.75
2023-03-21T03:22:34.274Z,1005.74
2023-03-21T03:23:34.235Z,1005.67
2023-03-21T03:24:39.247Z,1005.75
2023-03-21T03:25:42.474Z,1005.76
2023-03-21T03:26:34.209Z,1005.72
2023-03-21T03:27:34.204Z,1005.71
2023-03-21T03:28:34.215Z,1005.78
2023-03-21T03:29:34.177Z,1005.75
2023-03-21T03:30:42.228Z,1005.77
2023-03-21T03:31:34.186Z,1005.76
2023-03-21T03:32:34.163Z,1005.79
2023-03-21T03:33:34.144Z,1005.82
2023-03-21T03:34:34.133Z,1005.79
2023-03-21T03:35:39.206Z,1005.83
2023-03-21T03:36:34.147Z,1005.75
2023-03-21T03:37:34.082Z,1005.75
2023-03-21T03:38:34.078Z,1005.71
2023-03-21T03:39:34.058Z,1005.69
2023-03-21T03:40:35.889Z,1005.76
2023-03-21T03:42:00.909Z,1005.79
2023-03-21T03:42:34.027Z,1005.79
2023-03-21T03:43:34.020Z,1005.73
2023-03-21T03:44:34.001Z,1005.76
2023-03-21T03:45:33.990Z,1005.78
2023-03-21T03:46:39.066Z,1005.74
2023-03-21T03:47:37.932Z,1005.75
2023-03-21T03:48:34.089Z,1005.77
2023-03-21T03:49:33.965Z,1005.72
2023-03-21T03:50:33.947Z,1005.73
2023-03-21T03:51:33.930Z,1005.75
2023-03-21T03:52:33.929Z,1005.67
2023-03-21T03:53:33.908Z,1005.79
2023-03-21T03:54:33.904Z,1005.71
2023-03-21T03:55:33.910Z,1005.69
2023-03-21T03:56:33.867Z,1005.67
2023-03-21T03:57:38.879Z,1005.72
2023-03-21T03:58:44.835Z,1005.68
2023-03-21T03:59:33.836Z,1005.69
2023-03-21T04:00:33.826Z,1005.73
2023-03-21T04:01:33.843Z,1005.68
2023-03-21T04:02:33.836Z,1005.69
2023-03-21T04:03:47.724Z,1005.68
2023-03-21T04:04:33.834Z,1005.60
2023-03-21T04:05:33.790Z,1005.61
2023-03-21T04:06:33.761Z,1005.67
2023-03-21T04:07:33.760Z,1005.70
2023-03-21T04:08:38.788Z,1005.66
2023-03-21T04:09:43.513Z,1005.68
2023-03-21T04:10:33.745Z,1005.69
2023-03-21T04:11:33.704Z,1005.63
2023-03-21T04:12:33.694Z,1005.76
2023-03-21T04:13:33.685Z,1005.74
2023-03-21T04:14:44.101Z,1005.64
2023-03-21T04:15:33.671Z,1005.64
2023-03-21T04:16:35.787Z,1005.60
2023-03-21T04:17:33.641Z,1005.60
2023-03-21T04:18:33.639Z,1005.64
2023-03-21T04:19:38.649Z,1005.59
2023-03-21T04:20:37.250Z,1005.63
2023-03-21T04:21:33.617Z,1005.59
2023-03-21T04:22:33.605Z,1005.56
2023-03-21T04:23:33.571Z,1005.61
2023-03-21T04:24:33.571Z,1005.54
2023-03-21T04:25:34.598Z,1005.59
2023-03-21T04:26:33.552Z,1005.62
2023-03-21T04:27:33.528Z,1005.62
2023-03-21T04:28:33.572Z,1005.55
2023-03-21T04:29:33.522Z,1005.54
2023-03-21T04:30:38.882Z,1005.59
2023-03-21T04:31:33.498Z,1005.62
2023-03-21T04:32:33.475Z,1005.59
2023-03-21T04:33:33.463Z,1005.57
2023-03-21T04:34:33.479Z,1005.66
2023-03-21T04:35:33.494Z,1005.60
2023-03-21T04:36:33.430Z,1005.63
2023-03-21T04:37:33.446Z,1005.66
2023-03-21T04:38:33.409Z,1005.66
2023-03-21T04:39:33.406Z,1005.65
2023-03-21T04:40:33.405Z,1005.65
2023-03-21T04:41:38.394Z,1005.64
2023-03-21T04:42:33.363Z,1005.61
2023-03-21T04:43:33.351Z,1005.65
2023-03-21T04:44:33.381Z,1005.59
2023-03-21T04:45:33.368Z,1005.56
2023-03-21T04:46:33.336Z,1005.59
2023-03-21T04:47:33.308Z,1005.64
2023-03-21T04:48:33.294Z,1005.67
2023-03-21T04:49:33.303Z,1005.66
2023-03-21T04:50:33.270Z,1005.60
2023-03-21T04:51:33.262Z,1005.63
2023-03-21T04:52:38.326Z,1005.61
2023-03-21T04:53:33.244Z,1005.56
2023-03-21T04:54:33.238Z,1005.56
2023-03-21T04:55:33.216Z,1005.61
2023-03-21T04:56:33.202Z,1005.56
2023-03-21T04:57:33.202Z,1005.55
2023-03-21T04:58:33.199Z,1005.53
2023-03-21T04:59:33.186Z,1005.58
2023-03-21T05:00:33.170Z,1005.54
2023-03-21T05:01:33.238Z,1005.56
2023-03-21T05:02:33.139Z,1005.59
2023-03-21T05:03:38.164Z,1005.55
2023-03-21T05:04:33.144Z,1005.58
2023-03-21T05:05:33.102Z,1005.59
2023-03-21T05:06:33.096Z,1005.50
2023-03-21T05:07:33.083Z,1005.52
2023-03-21T05:08:33.091Z,1005.54
2023-03-21T05:09:33.072Z,1005.58
2023-03-21T05:10:33.073Z,1005.49
2023-03-21T05:11:33.037Z,1005.52
2023-03-21T05:12:33.033Z,1005.48
2023-03-21T05:13:33.019Z,1005.44
2023-03-21T05:14:38.038Z,1005.42
2023-03-21T05:15:32.993Z,1005.42
2023-03-21T05:16:33.027Z,1005.42
2023-03-21T05:17:32.970Z,1005.42
2023-03-21T05:18:32.955Z,1005.45
2023-03-21T05:19:32.946Z,1005.40
2023-03-21T05:20:32.942Z,1005.44
2023-03-21T05:21:32.924Z,1005.43
2023-03-21T05:22:32.928Z,1005.43
2023-03-21T05:23:32.907Z,1005.44
2023-03-21T05:24:32.919Z,1005.44
2023-03-21T05:25:38.216Z,1005.43
2023-03-21T05:26:32.870Z,1005.41
2023-03-21T05:27:32.858Z,1005.38
2023-03-21T05:28:32.873Z,1005.40
2023-03-21T05:29:32.843Z,1005.38
2023-03-21T05:30:32.842Z,1005.40
2023-03-21T05:31:32.814Z,1005.35
2023-03-21T05:32:32.802Z,1005.34
2023-03-21T05:33:32.792Z,1005.38
2023-03-21T05:34:32.813Z,1005.36
2023-03-21T05:35:32.782Z,1005.38
2023-03-21T05:36:37.778Z,1005.41
2023-03-21T05:37:32.748Z,1005.33
2023-03-21T05:38:32.745Z,1005.34
2023-03-21T05:39:32.726Z,1005.35
2023-03-21T05:40:32.748Z,1005.45
2023-03-21T05:41:32.714Z,1005.42
2023-03-21T05:42:32.696Z,1005.43
2023-03-21T05:43:32.682Z,1005.36
2023-03-21T05:44:32.673Z,1005.40
2023-03-21T05:45:32.672Z,1005.41
2023-03-21T05:46:32.700Z,1005.41
2023-03-21T05:47:37.661Z,1005.38
2023-03-21T05:48:32.623Z,1005.37
2023-03-21T05:49:32.613Z,1005.38
2023-03-21T05:50:32.611Z,1005.39
2023-03-21T05:51:32.591Z,1005.34
2023-03-21T05:52:32.653Z,1005.36
2023-03-21T05:53:32.576Z,1005.38
2023-03-21T05:54:32.564Z,1005.39
2023-03-21T05:55:32.558Z,1005.38
2023-03-21T05:56:32.565Z,1005.34
2023-03-21T05:57:32.530Z,1005.39
2023-03-21T05:58:37.584Z,1005.37
2023-03-21T05:59:32.508Z,1005.42
2023-03-21T06:00:32.502Z,1005.44
2023-03-21T06:01:32.481Z,1005.45
2023-03-21T06:02:32.506Z,1005.51
2023-03-21T06:03:32.514Z,1005.46
2023-03-21T06:04:32.480Z,1005.42
2023-03-21T06:05:32.445Z,1005.48
2023-03-21T06:06:32.434Z,1005.48
2023-03-21T06:07:32.420Z,1005.50
2023-03-21T06:08:32.412Z,1005.45
2023-03-21T06:09:37.424Z,1005.50
2023-03-21T06:10:32.419Z,1005.53
2023-03-21T06:11:32.375Z,1005.47
2023-03-21T06:12:32.379Z,1005.42
2023-03-21T06:13:32.352Z,1005.50
2023-03-21T06:14:32.352Z,1005.49
2023-03-21T06:15:32.343Z,1005.48
2023-03-21T06:16:32.323Z,1005.52
2023-03-21T06:17:32.308Z,1005.53
2023-03-21T06:18:32.292Z,1005.54
2023-03-21T06:19:32.285Z,1005.51
2023-03-21T06:20:37.302Z,1005.51
2023-03-21T06:21:32.260Z,1005.47
2023-03-21T06:22:32.261Z,1005.50
2023-03-21T06:23:32.242Z,1005.60
2023-03-21T06:24:32.226Z,1005.56
2023-03-21T06:25:32.237Z,1005.56
2023-03-21T06:26:32.203Z,1005.59
2023-03-21T06:27:32.193Z,1005.53
2023-03-21T06:28:32.204Z,1005.49
2023-03-21T06:29:32.177Z,1005.52
2023-03-21T06:30:32.168Z,1005.54
2023-03-21T06:31:37.256Z,1005.57
2023-03-21T06:32:32.136Z,1005.54
2023-03-21T06:33:32.126Z,1005.54
2023-03-21T06:34:32.123Z,1005.55
2023-03-21T06:35:32.129Z,1005.57
2023-03-21T06:36:32.091Z,1005.58
2023-03-21T06:37:32.085Z,1005.63
2023-03-21T06:38:32.069Z,1005.63
2023-03-21T06:39:32.059Z,1005.56
2023-03-21T06:40:32.095Z,1005.68
2023-03-21T06:41:32.061Z,1005.63
2023-03-21T06:42:37.064Z,1005.65
2023-03-21T06:43:32.022Z,1005.63
2023-03-21T06:44:32.035Z,1005.67
2023-03-21T06:45:32.006Z,1005.64
2023-03-21T06:46:32.072Z,1005.72
2023-03-21T06:47:31.978Z,1005.67
2023-03-21T06:48:31.958Z,1005.71
2023-03-21T06:49:31.951Z,1005.73
2023-03-21T06:50:31.943Z,1005.71
2023-03-21T06:51:31.955Z,1005.74
2023-03-21T06:52:31.939Z,1005.74
2023-03-21T06:53:36.927Z,1005.72
2023-03-21T06:54:31.912Z,1005.74
2023-03-21T06:55:31.908Z,1005.72
2023-03-21T06:56:31.879Z,1005.70
2023-03-21T06:57:31.867Z,1005.66
2023-03-21T06:58:31.865Z,1005.73
2023-03-21T06:59:31.837Z,1005.65
2023-03-21T07:00:31.952Z,1005.60
2023-03-21T07:01:31.819Z,1005.71
2023-03-21T07:02:31.850Z,1005.59
2023-03-21T07:03:31.793Z,1005.61
2023-03-21T07:04:36.836Z,1005.62
2023-03-21T07:05:31.782Z,1005.62
2023-03-21T07:06:31.762Z,1005.58
2023-03-21T07:07:31.752Z,1005.58
2023-03-21T07:08:31.745Z,1005.58
2023-03-21T07:09:31.728Z,1005.59
2023-03-21T07:10:31.755Z,1005.61
2023-03-21T07:11:31.709Z,1005.62
2023-03-21T07:12:31.697Z,1005.67
2023-03-21T07:13:31.696Z,1005.63
2023-03-21T07:14:31.677Z,1005.62
2023-03-21T07:15:37.020Z,1005.65
2023-03-21T07:16:31.739Z,1005.67
2023-03-21T07:17:31.641Z,1005.66
2023-03-21T07:18:31.631Z,1005.70
2023-03-21T07:19:31.619Z,1005.69
2023-03-21T07:20:31.608Z,1005.69
2023-03-21T07:21:31.607Z,1005.68
2023-03-21T07:22:31.605Z,1005.75
2023-03-21T07:23:31.577Z,1005.71
2023-03-21T07:24:31.558Z,1005.72
2023-03-21T07:25:31.678Z,1005.70
2023-03-21T07:26:36.571Z,1005.71
2023-03-21T07:27:31.562Z,1005.76
2023-03-21T07:28:31.543Z,1005.70
2023-03-21T07:29:31.513Z,1005.73
2023-03-21T07:30:31.490Z,1005.68
2023-03-21T07:31:31.577Z,1005.69
2023-03-21T07:32:31.473Z,1005.68
2023-03-21T07:33:31.461Z,1005.63
2023-03-21T07:34:31.470Z,1005.63
2023-03-21T07:35:31.440Z,1005.63
2023-03-21T07:36:31.433Z,1005.60
2023-03-21T07:37:38.139Z,1005.62
2023-03-21T07:38:31.400Z,1005.60
2023-03-21T07:39:31.399Z,1005.63
2023-03-21T07:40:31.409Z,1005.62
2023-03-21T07:41:31.389Z,1005.53
2023-03-21T07:43:31.358Z,1005.63
2023-03-21T07:44:31.335Z,1005.59
2023-03-21T07:45:31.332Z,1005.61
2023-03-21T07:46:31.375Z,1005.54
2023-03-21T07:47:31.321Z,1005.61
2023-03-21T07:48:36.312Z,1005.59
2023-03-21T07:49:31.287Z,1005.56
2023-03-21T07:50:31.272Z,1005.56
2023-03-21T07:51:31.303Z,1005.62
2023-03-21T07:52:31.290Z,1005.63
2023-03-21T07:53:31.234Z,1005.60
2023-03-21T07:54:31.224Z,1005.62
2023-03-21T07:55:31.218Z,1005.61
2023-03-21T07:56:31.223Z,1005.67
2023-03-21T07:57:31.199Z,1005.69
2023-03-21T07:58:31.195Z,1005.64
2023-03-21T07:59:36.188Z,1005.62
2023-03-21T08:00:31.161Z,1005.75
2023-03-21T08:01:31.154Z,1005.74
2023-03-21T08:02:31.140Z,1005.77
2023-03-21T08:03:31.237Z,1005.77
2023-03-21T08:04:31.128Z,1005.71
2023-03-21T08:05:31.097Z,1005.70
2023-03-21T08:06:31.102Z,1005.77
2023-03-21T08:07:31.077Z,1005.73
2023-03-21T08:08:31.076Z,1005.67
2023-03-21T08:09:31.336Z,1005.75
2023-03-21T08:10:36.101Z,1005.82
2023-03-21T08:11:31.040Z,1005.82
2023-03-21T08:12:31.018Z,1005.76
2023-03-21T08:13:31.009Z,1005.74
2023-03-21T08:14:30.997Z,1005.68
2023-03-21T08:15:30.988Z,1005.69
2023-03-21T08:16:31.049Z,1005.68
2023-03-21T08:17:30.966Z,1005.66
2023-03-21T08:18:30.951Z,1005.62
2023-03-21T08:19:30.960Z,1005.64
2023-03-21T08:20:30.932Z,1005.64
2023-03-21T08:21:35.957Z,1005.71
2023-03-21T08:22:30.933Z,1005.68
2023-03-21T08:23:30.898Z,1005.66
2023-03-21T08:24:30.888Z,1005.59
2023-03-21T08:25:30.887Z,1005.58
2023-03-21T08:26:30.874Z,1005.70
2023-03-21T08:27:30.858Z,1005.55
2023-03-21T08:28:30.885Z,1005.62
2023-03-21T08:29:30.833Z,1005.59
2023-03-21T08:30:30.898Z,1005.60
2023-03-21T08:31:30.818Z,1005.56
2023-03-21T08:32:35.820Z,1005.60
2023-03-21T08:33:30.789Z,1005.52
2023-03-21T08:34:30.787Z,1005.58
2023-03-21T08:35:30.788Z,1005.55
2023-03-21T08:36:30.770Z,1005.58
2023-03-21T08:37:30.742Z,1005.49
2023-03-21T08:38:30.729Z,1005.64
2023-03-21T08:39:30.759Z,1005.59
2023-03-21T08:40:30.729Z,1005.61
2023-03-21T08:41:30.698Z,1005.53
2023-03-21T08:42:30.739Z,1005.55
2023-03-21T08:43:35.703Z,1005.58
2023-03-21T08:44:30.661Z,1005.62
2023-03-21T08:45:30.646Z,1005.63
2023-03-21T08:46:30.727Z,1005.58
2023-03-21T08:47:30.637Z,1005.61
2023-03-21T08:48:30.618Z,1005.58
2023-03-21T08:49:30.605Z,1005.65
2023-03-21T08:50:30.595Z,1005.61
2023-03-21T08:51:30.601Z,1005.63
2023-03-21T08:52:30.616Z,1005.74
2023-03-21T08:53:30.564Z,1005.72
2023-03-21T08:54:35.576Z,1005.70
2023-03-21T08:55:30.538Z,1005.65
2023-03-21T08:56:30.535Z,1005.71
2023-03-21T08:57:30.525Z,1005.69
2023-03-21T08:58:30.534Z,1005.67
2023-03-21T08:59:30.494Z,1005.65
2023-03-21T09:00:30.494Z,1005.63
2023-03-21T09:01:30.510Z,1005.69
2023-03-21T09:02:30.507Z,1005.60
2023-03-21T09:03:30.455Z,1005.60
2023-03-21T09:04:30.490Z,1005.65
2023-03-21T09:05:35.794Z,1005.61
2023-03-21T09:06:30.420Z,1005.61
2023-03-21T09:07:30.437Z,1005.60
2023-03-21T09:08:30.397Z,1005.65
2023-03-21T09:09:30.385Z,1005.62
2023-03-21T09:10:30.416Z,1005.58
2023-03-21T09:11:30.361Z,1005.60
2023-03-21T09:12:30.358Z,1005.57
2023-03-21T09:13:30.349Z,1005.61
2023-03-21T09:14:30.338Z,1005.62
2023-03-21T09:15:30.320Z,1005.57
2023-03-21T09:16:35.360Z,1005.61
2023-03-21T09:17:30.308Z,1005.61
2023-03-21T09:18:30.286Z,1005.61
2023-03-21T09:19:30.276Z,1005.65
2023-03-21T09:20:30.265Z,1005.59
2023-03-21T09:21:30.244Z,1005.61
2023-03-21T09:22:30.262Z,1005.60
2023-03-21T09:23:30.250Z,1005.60
2023-03-21T09:24:30.216Z,1005.56
2023-03-21T09:25:30.221Z,1005.57
2023-03-21T09:26:30.196Z,1005.55
2023-03-21T09:27:35.991Z,1005.56
2023-03-21T09:28:30.180Z,1005.62
2023-03-21T09:29:30.159Z,1005.62
2023-03-21T09:30:30.228Z,1005.61
2023-03-21T09:31:30.184Z,1005.53
2023-03-21T09:32:30.135Z,1005.54
2023-03-21T09:33:30.125Z,1005.54
2023-03-21T09:34:30.118Z,1005.56
2023-03-21T09:35:30.085Z,1005.61
2023-03-21T09:36:30.079Z,1005.57
2023-03-21T09:37:30.104Z,1005.56
2023-03-21T09:38:35.095Z,1005.54
2023-03-21T09:39:30.068Z,1005.58
2023-03-21T09:40:30.048Z,1005.57
2023-03-21T09:41:30.021Z,1005.56
2023-03-21T09:42:30.025Z,1005.56
2023-03-21T09:43:29.999Z,1005.60
2023-03-21T09:44:29.984Z,1005.63
2023-03-21T09:45:29.975Z,1005.61
2023-03-21T09:46:30.012Z,1005.60
2023-03-21T09:47:29.963Z,1005.60
2023-03-21T09:48:30.216Z,1005.68
2023-03-21T09:49:34.956Z,1005.57
2023-03-21T09:50:29.916Z,1005.60
2023-03-21T09:51:29.906Z,1005.59
2023-03-21T09:52:29.925Z,1005.54
2023-03-21T09:53:29.881Z,1005.56
2023-03-21T09:54:29.891Z,1005.58
2023-03-21T09:55:29.872Z,1005.60
2023-03-21T09:56:29.850Z,1005.53
2023-03-21T09:57:29.851Z,1005.54
2023-03-21T09:58:29.855Z,1005.57
2023-03-21T09:59:31.738Z,1005.62
2023-03-21T10:00:34.871Z,1005.54
2023-03-21T10:01:29.842Z,1005.59
2023-03-21T10:02:29.791Z,1005.52
2023-03-21T10:03:29.769Z,1005.60
2023-03-21T10:04:29.840Z,1005.60
2023-03-21T10:05:29.744Z,1005.54
2023-03-21T10:06:29.735Z,1005.65
2023-03-21T10:07:29.754Z,1005.58
2023-03-21T10:08:29.740Z,1005.63
2023-03-21T10:09:29.700Z,1005.61
2023-03-21T10:10:29.722Z,1005.58
2023-03-21T10:11:34.729Z,1005.54
2023-03-21T10:12:29.678Z,1005.57
2023-03-21T10:13:29.670Z,1005.61
2023-03-21T10:14:29.648Z,1005.57
2023-03-21T10:15:29.641Z,1005.53
2023-03-21T10:16:29.749Z,1005.55
2023-03-21T10:17:29.624Z,1005.53
2023-03-21T10:18:29.614Z,1005.52
2023-03-21T10:19:29.616Z,1005.50
2023-03-21T10:20:29.582Z,1005.51
2023-03-21T10:21:56.934Z,1005.42
2023-03-21T10:22:35.628Z,1005.48
2023-03-21T10:23:29.556Z,1005.52
2023-03-21T10:24:29.540Z,1005.47
2023-03-21T10:25:29.521Z,1005.45
2023-03-21T10:26:29.533Z,1005.47
2023-03-21T10:27:29.504Z,1005.42
2023-03-21T10:28:32.748Z,1005.40
2023-03-21T10:29:29.675Z,1005.38
2023-03-21T10:30:29.477Z,1005.39
2023-03-21T10:31:29.487Z,1005.36
2023-03-21T10:32:29.452Z,1005.34
2023-03-21T10:33:34.464Z,1005.35
2023-03-21T10:34:29.466Z,1005.41
2023-03-21T10:35:29.414Z,1005.36
2023-03-21T10:36:29.420Z,1005.37
2023-03-21T10:37:29.399Z,1005.43
2023-03-21T10:38:29.383Z,1005.32
2023-03-21T10:39:29.363Z,1005.37
2023-03-21T10:40:29.365Z,1005.28
2023-03-21T10:41:29.357Z,1005.35
2023-03-21T10:42:29.409Z,1005.33
2023-03-21T10:43:29.369Z,1005.27
2023-03-21T10:44:34.370Z,1005.34
2023-03-21T10:45:29.338Z,1005.32
2023-03-21T10:46:29.683Z,1005.21
2023-03-21T10:47:29.535Z,1005.25
2023-03-21T10:48:29.506Z,1005.25
2023-03-21T10:49:30.121Z,1005.25
2023-03-21T10:50:29.332Z,1005.27
2023-03-21T10:51:29.241Z,1005.24
2023-03-21T10:52:29.213Z,1005.22
2023-03-21T10:53:29.235Z,1005.22
2023-03-21T10:54:29.196Z,1005.31
2023-03-21T10:55:34.204Z,1005.24
2023-03-21T10:56:29.198Z,1005.21
2023-03-21T10:57:29.156Z,1005.21
2023-03-21T10:58:29.188Z,1005.18
2023-03-21T10:59:29.151Z,1005.21
2023-03-21T11:00:29.156Z,1005.23
2023-03-21T11:01:29.138Z,1005.23
2023-03-21T11:02:29.159Z,1005.22
2023-03-21T11:03:29.134Z,1005.25
2023-03-21T11:04:29.076Z,1005.23
2023-03-21T11:05:29.062Z,1005.34
2023-03-21T11:06:34.075Z,1005.30
2023-03-21T11:07:29.049Z,1005.28
2023-03-21T11:08:29.085Z,1005.29
2023-03-21T11:09:29.014Z,1005.24
2023-03-21T11:10:29.445Z,1005.25
2023-03-21T11:11:29.000Z,1005.30
2023-03-21T11:12:28.991Z,1005.23
2023-03-21T11:13:28.978Z,1005.21
2023-03-21T11:14:29.021Z,1005.25
2023-03-21T11:15:28.950Z,1005.19
2023-03-21T11:16:29.008Z,1005.21
2023-03-21T11:17:33.951Z,1005.16
2023-03-21T11:18:28.946Z,1005.20
2023-03-21T11:19:28.946Z,1005.17
2023-03-21T11:20:28.929Z,1005.18
2023-03-21T11:21:29.637Z,1005.13
2023-03-21T11:22:28.876Z,1005.11
2023-03-21T11:23:28.870Z,1005.09
2023-03-21T11:24:28.878Z,1005.10
2023-03-21T11:25:28.837Z,1005.06
2023-03-21T11:26:28.844Z,1005.12
2023-03-21T11:27:28.815Z,1005.06
2023-03-21T11:28:33.834Z,1005.07
2023-03-21T11:29:28.805Z,1005.08
2023-03-21T11:30:28.830Z,1005.14
2023-03-21T11:31:28.774Z,1005.03
2023-03-21T11:32:28.782Z,1005.00
2023-03-21T11:33:28.752Z,1005.10
2023-03-21T11:34:28.751Z,1005.07
2023-03-21T11:35:28.740Z,1005.06
2023-03-21T11:36:28.725Z,1005.01
2023-03-21T11:37:28.704Z,1005.03
2023-03-21T11:38:28.716Z,1005.09
2023-03-21T11:39:33.746Z,1005.02
2023-03-21T11:40:28.712Z,1005.04
2023-03-21T11:41:28.681Z,1005.03
2023-03-21T11:42:28.653Z,1005.01
2023-03-21T11:43:28.636Z,1004.99
2023-03-21T11:44:28.638Z,1005.02
2023-03-21T11:45:28.624Z,1004.92
2023-03-21T11:46:28.665Z,1004.86
2023-03-21T11:47:28.595Z,1004.84
2023-03-21T11:48:28.716Z,1004.74
2023-03-21T11:49:28.572Z,1004.80
2023-03-21T11:50:33.619Z,1004.85
2023-03-21T11:51:28.566Z,1004.77
2023-03-21T11:52:28.552Z,1004.83
2023-03-21T11:53:28.524Z,1004.81
2023-03-21T11:54:28.540Z,1004.75
2023-03-21T11:55:28.517Z,1004.75
2023-03-21T11:56:28.523Z,1004.72
2023-03-21T11:57:28.479Z,1004.79
2023-03-21T11:58:28.504Z,1004.73
2023-03-21T11:59:28.456Z,1004.68
2023-03-21T12:00:28.446Z,1004.71
2023-03-21T12:01:33.510Z,1004.72
2023-03-21T12:02:28.490Z,1004.69
2023-03-21T12:03:30.738Z,1004.69
2023-03-21T12:04:28.478Z,1004.67
2023-03-21T12:05:28.389Z,1004.68
2023-03-21T12:06:28.391Z,1004.60